Terminal Aerodrome Forecast
Issued by NWS Wilmington, OH

Current Version | Previous Version | Text Only | Print | Product List | Glossary Off
Versions: 1 2 3 4 5 6 7 8 9 10 11 12 13 14 15 16 17 18 19

000
FTUS41 KILN 011005 AAB
TAFDAY
TAF AMD
KDAY 011005Z 0110/0206 23003KT P6SM SKC
     FM011200 24005KT P6SM SKC
     FM011800 25008KT P6SM BKN040
     FM020100 25004KT P6SM FEW050=

USA.gov is the U.S. government's official web portal to all federal, state and local government web resources and services.